Time;durP1;ratioP1;P1;durP2;ratioP2;P2;SDS_P1;SDS_P2;PMS_P1;PMS_P2;Temp;Humidity;BMP_temperature;BMP_pressure;BME280_temperature;BME280_humidity;BME280_pressure;Samples;Min_cycle;Max_cycle;Signal;HPM_P1;HPM_P2
2021/10/16 00:00:31;;;;;;;3.30;2.03;;;2.80;97.00;;;;;;2089531;28;20178;-71
2021/10/16 00:01:32;;;;;;;4.27;2.40;;;2.80;97.20;;;;;;2089055;28;20256;-72
2021/10/16 00:02:32;;;;;;;3.63;2.40;;;2.80;97.20;;;;;;2088953;28;20176;-66
2021/10/16 00:03:33;;;;;;;3.10;2.03;;;2.80;97.30;;;;;;2088865;28;20187;-65
2021/10/16 00:04:34;;;;;;;5.23;2.73;;;2.80;97.30;;;;;;2088937;28;20204;-66
2021/10/16 00:05:35;;;;;;;3.23;2.40;;;2.80;97.40;;;;;;2089536;28;20282;-66
2021/10/16 00:06:35;;;;;;;2.83;1.90;;;2.80;97.40;;;;;;2089337;28;20188;-66
2021/10/16 00:07:36;;;;;;;2.43;2.10;;;2.80;97.40;;;;;;2089425;28;20623;-66
2021/10/16 00:08:37;;;;;;;4.10;2.53;;;2.80;97.50;;;;;;2089590;28;20210;-66
2021/10/16 00:09:37;;;;;;;5.70;2.43;;;2.80;97.40;;;;;;2089599;28;20667;-65
2021/10/16 00:10:38;;;;;;;3.40;2.23;;;2.80;97.30;;;;;;2089512;28;20185;-66
2021/10/16 00:11:39;;;;;;;4.27;2.43;;;2.80;97.20;;;;;;2089396;28;20185;-64
2021/10/16 00:12:40;;;;;;;2.83;2.40;;;2.80;97.10;;;;;;2089539;28;20614;-66
2021/10/16 00:13:42;;;;;;;3.63;2.50;;;2.80;97.10;;;;;;2094156;28;20516;-67
2021/10/16 00:14:43;;;;;;;3.90;2.58;;;2.80;97.10;;;;;;2093712;28;20231;-67
2021/10/16 00:15:43;;;;;;;2.97;2.40;;;2.80;97.10;;;;;;2089465;28;20261;-65
2021/10/16 00:16:44;;;;;;;3.50;2.30;;;2.80;97.10;;;;;;2089722;28;20173;-66
2021/10/16 00:17:45;;;;;;;4.73;2.80;;;2.80;97.10;;;;;;2089200;28;20169;-66
2021/10/16 00:18:45;;;;;;;3.20;2.37;;;2.80;97.00;;;;;;2089324;28;20256;-65
2021/10/16 00:19:46;;;;;;;7.20;2.60;;;2.80;96.90;;;;;;2089135;28;20197;-64
2021/10/16 00:20:47;;;;;;;5.13;2.53;;;2.80;97.10;;;;;;2089751;28;20263;-65
2021/10/16 00:21:47;;;;;;;5.33;2.60;;;2.80;97.20;;;;;;2088481;28;20182;-65
2021/10/16 00:22:48;;;;;;;5.03;2.27;;;2.80;97.50;;;;;;2089671;28;20174;-67
2021/10/16 00:23:49;;;;;;;5.43;2.70;;;2.70;97.50;;;;;;2088497;28;20178;-66
2021/10/16 00:24:49;;;;;;;3.37;2.47;;;2.80;97.30;;;;;;2088818;28;20214;-66
2021/10/16 00:25:50;;;;;;;7.77;2.77;;;2.80;97.40;;;;;;2088581;28;20196;-65
2021/10/16 00:26:51;;;;;;;7.77;2.93;;;2.70;97.30;;;;;;2088393;28;20212;-65
2021/10/16 00:27:51;;;;;;;3.50;2.23;;;2.70;97.30;;;;;;2089071;28;20178;-65
2021/10/16 00:28:52;;;;;;;4.97;2.60;;;2.70;97.90;;;;;;2089062;28;20237;-66
2021/10/16 00:29:53;;;;;;;4.03;2.60;;;2.70;97.30;;;;;;2088446;28;20212;-66
2021/10/16 00:30:54;;;;;;;3.20;2.57;;;2.70;97.20;;;;;;2089226;28;20274;-65
2021/10/16 00:31:55;;;;;;;2.93;2.20;;;2.70;97.10;;;;;;2088934;28;20176;-65
2021/10/16 00:32:55;;;;;;;3.92;2.58;;;2.70;97.00;;;;;;2089131;28;20188;-65
2021/10/16 00:33:56;;;;;;;3.57;2.13;;;2.70;96.90;;;;;;2088716;28;20189;-65
2021/10/16 00:34:57;;;;;;;3.23;2.40;;;2.70;96.90;;;;;;2084157;28;20173;-65
2021/10/16 00:35:58;;;;;;;2.60;2.10;;;2.70;96.90;;;;;;2083378;28;20174;-65
2021/10/16 00:36:58;;;;;;;4.87;2.53;;;2.70;96.70;;;;;;2083789;28;20178;-66
2021/10/16 00:37:59;;;;;;;4.30;2.57;;;2.70;96.70;;;;;;2083522;28;20204;-65
2021/10/16 00:39:00;;;;;;;3.73;2.47;;;2.60;96.70;;;;;;2083425;28;20186;-65
2021/10/16 00:40:01;;;;;;;3.50;2.58;;;2.60;96.70;;;;;;2083563;28;20647;-65
2021/10/16 00:41:02;;;;;;;3.53;2.40;;;2.60;96.60;;;;;;2083108;28;20200;-64
2021/10/16 00:42:05;;;;;;;3.53;2.20;;;2.60;96.70;;;;;;2083104;28;20177;-66
2021/10/16 00:43:05;;;;;;;5.28;2.70;;;2.60;96.60;;;;;;2082438;28;20273;-65
2021/10/16 00:44:18;;;;;;;3.13;2.03;;;2.60;96.50;;;;;;2082687;28;20188;-66
2021/10/16 00:45:21;;;;;;;4.05;2.40;;;2.60;96.50;;;;;;2082224;28;20197;-66
2021/10/16 00:46:21;;;;;;;3.92;2.20;;;2.60;97.20;;;;;;2082377;28;20181;-66
2021/10/16 00:47:22;;;;;;;5.43;2.37;;;2.60;96.70;;;;;;2083191;28;20212;-65
2021/10/16 00:48:22;;;;;;;4.17;2.30;;;2.60;96.60;;;;;;2083211;28;20200;-64
2021/10/16 00:49:28;;;;;;;3.13;2.03;;;2.60;96.70;;;;;;2082903;28;20656;-65
2021/10/16 00:50:29;;;;;;;3.00;1.92;;;2.60;97.40;;;;;;2082670;28;20189;-65
2021/10/16 00:51:29;;;;;;;3.10;1.80;;;2.60;96.90;;;;;;2082725;28;20268;-64
2021/10/16 00:52:30;;;;;;;3.00;2.10;;;2.60;97.10;;;;;;2082985;28;20426;-64
2021/10/16 00:53:31;;;;;;;2.97;2.30;;;2.60;97.20;;;;;;2082663;28;20202;-64
2021/10/16 00:54:32;;;;;;;3.33;2.60;;;2.60;97.30;;;;;;2083163;28;20252;-65
2021/10/16 00:55:33;;;;;;;4.65;1.70;;;2.60;97.30;;;;;;2082263;28;20194;-64
2021/10/16 00:56:41;;;;;;;3.70;2.33;;;2.60;97.30;;;;;;2082257;28;20209;-65
2021/10/16 00:57:43;;;;;;;7.03;2.40;;;2.50;97.20;;;;;;2082356;28;20730;-65
2021/10/16 00:58:44;;;;;;;2.85;2.15;;;2.50;97.20;;;;;;2080777;28;20173;-64
2021/10/16 00:59:45;;;;;;;2.40;1.90;;;2.50;97.30;;;;;;2075436;28;20193;-65
2021/10/16 01:00:46;;;;;;;2.47;2.17;;;2.50;97.30;;;;;;2074000;28;20197;-65
2021/10/16 01:01:47;;;;;;;5.65;1.90;;;2.50;97.10;;;;;;2073663;28;20212;-67
2021/10/16 01:02:48;;;;;;;3.07;2.03;;;2.50;97.20;;;;;;2074959;28;20220;-64
2021/10/16 01:03:49;;;;;;;2.85;2.17;;;2.50;97.30;;;;;;2074560;28;20178;-66
2021/10/16 01:04:50;;;;;;;3.73;2.17;;;2.40;97.30;;;;;;2074551;28;20212;-65
2021/10/16 01:05:51;;;;;;;3.10;1.93;;;2.40;97.30;;;;;;2074262;28;20211;-65
2021/10/16 01:06:52;;;;;;;3.20;2.17;;;2.40;97.30;;;;;;2073935;28;20186;-65
2021/10/16 01:07:52;;;;;;;2.60;2.13;;;2.40;97.20;;;;;;2073815;28;20190;-65
2021/10/16 01:08:55;;;;;;;2.30;1.87;;;2.40;97.20;;;;;;2073908;28;20293;-65
2021/10/16 01:09:57;;;;;;;2.78;2.00;;;2.40;97.20;;;;;;2074101;28;20189;-66
2021/10/16 01:10:58;;;;;;;2.30;2.00;;;2.40;97.10;;;;;;2074380;28;20201;-67
2021/10/16 01:11:59;;;;;;;3.67;2.17;;;2.40;97.30;;;;;;2074225;28;20182;-66
2021/10/16 01:13:00;;;;;;;3.10;2.50;;;2.40;97.40;;;;;;2073746;28;20187;-64
2021/10/16 01:14:12;;;;;;;3.83;2.37;;;2.40;97.40;;;;;;2073776;28;20172;-65
2021/10/16 01:15:16;;;;;;;2.80;2.13;;;2.40;97.30;;;;;;2074251;28;20656;-64
2021/10/16 01:16:17;;;;;;;3.03;2.17;;;2.40;97.30;;;;;;2074321;28;20453;-65
2021/10/16 01:17:18;;;;;;;2.73;2.27;;;2.40;97.20;;;;;;2074496;28;20186;-66
2021/10/16 01:18:22;;;;;;;2.97;2.13;;;2.30;97.20;;;;;;2073624;28;20182;-65
2021/10/16 01:19:25;;;;;;;3.30;2.08;;;2.30;97.10;;;;;;2066260;28;20182;-65
2021/10/16 01:20:29;;;;;;;2.88;2.05;;;2.30;97.00;;;;;;2073822;28;20336;-65
2021/10/16 01:21:31;;;;;;;2.78;2.00;;;2.30;97.10;;;;;;2073645;28;20491;-65
2021/10/16 01:22:33;;;;;;;4.03;2.25;;;2.30;97.00;;;;;;2074460;28;20532;-65
2021/10/16 01:23:35;;;;;;;2.13;1.80;;;2.30;97.10;;;;;;2074244;28;20541;-65
2021/10/16 01:24:36;;;;;;;3.30;2.08;;;2.20;97.20;;;;;;2073195;28;20187;-65
2021/10/16 01:25:37;;;;;;;2.95;2.25;;;2.30;97.30;;;;;;2073499;28;20317;-65
2021/10/16 01:26:41;;;;;;;3.05;2.45;;;2.30;97.30;;;;;;2081823;28;20268;-65
2021/10/16 01:27:42;;;;;;;3.20;2.42;;;2.30;97.40;;;;;;2081819;28;20243;-66
2021/10/16 01:28:43;;;;;;;3.73;2.30;;;2.30;97.60;;;;;;2074216;28;20297;-65
2021/10/16 01:29:44;;;;;;;4.93;3.00;;;2.30;97.70;;;;;;2073849;28;20210;-65
2021/10/16 01:30:45;;;;;;;4.22;2.63;;;2.40;97.80;;;;;;2073698;28;20186;-65
2021/10/16 01:31:47;;;;;;;3.67;2.67;;;2.30;97.70;;;;;;2073500;28;20231;-66
2021/10/16 01:32:48;;;;;;;5.03;2.42;;;2.40;97.70;;;;;;2065767;28;20179;-65
2021/10/16 01:33:49;;;;;;;3.38;2.42;;;2.40;97.80;;;;;;2073645;28;20185;-66
2021/10/16 01:34:50;;;;;;;4.57;2.70;;;2.40;97.90;;;;;;2073691;28;20213;-65
2021/10/16 01:36:05;;;;;;;5.20;2.93;;;2.40;97.80;;;;;;2073992;28;20772;-65
2021/10/16 01:37:06;;;;;;;3.38;2.20;;;2.40;97.80;;;;;;2074545;28;20181;-66
2021/10/16 01:38:07;;;;;;;5.17;2.57;;;2.40;97.70;;;;;;2074324;28;20181;-66
2021/10/16 01:39:08;;;;;;;3.50;2.77;;;2.40;97.60;;;;;;2074104;28;20174;-66
2021/10/16 01:40:11;;;;;;;3.63;2.70;;;2.40;97.60;;;;;;2073736;28;20232;-65
2021/10/16 01:41:12;;;;;;;3.90;2.72;;;2.40;97.60;;;;;;2073317;28;20193;-65
2021/10/16 01:42:14;;;;;;;5.17;2.70;;;2.40;97.70;;;;;;2073747;28;20712;-66
2021/10/16 01:43:14;;;;;;;5.65;3.13;;;2.40;97.80;;;;;;2073720;28;20185;-66
2021/10/16 01:44:16;;;;;;;3.67;2.80;;;2.40;97.70;;;;;;2065682;28;20720;-65
2021/10/16 01:45:19;;;;;;;3.38;2.50;;;2.30;97.70;;;;;;2065579;28;20210;-65
2021/10/16 01:46:20;;;;;;;9.10;2.63;;;2.30;97.70;;;;;;2073643;28;20182;-66
2021/10/16 01:47:20;;;;;;;3.30;2.40;;;2.30;97.60;;;;;;2074230;28;20209;-66
2021/10/16 01:48:25;;;;;;;4.23;2.50;;;2.30;97.60;;;;;;2074249;28;20217;-67
2021/10/16 01:49:28;;;;;;;3.25;2.72;;;2.30;97.60;;;;;;2074249;28;20173;-66
2021/10/16 01:50:40;;;;;;;4.65;2.42;;;2.30;97.50;;;;;;2073903;28;20677;-66
2021/10/16 01:51:42;;;;;;;2.80;2.13;;;2.30;97.40;;;;;;2074073;28;20181;-65
2021/10/16 01:52:43;;;;;;;4.35;2.30;;;2.30;97.30;;;;;;2074312;28;20263;-65
2021/10/16 01:53:45;;;;;;;4.73;2.23;;;2.30;97.30;;;;;;2074115;28;20185;-65
2021/10/16 01:54:46;;;;;;;5.95;2.60;;;2.20;97.40;;;;;;2073508;28;20288;-65
2021/10/16 01:55:47;;;;;;;4.40;2.50;;;2.20;97.50;;;;;;2073344;28;20579;-66
2021/10/16 01:56:48;;;;;;;4.75;3.17;;;2.20;97.60;;;;;;2074176;28;20181;-65
2021/10/16 01:57:50;;;;;;;3.83;2.33;;;2.20;97.70;;;;;;2074056;28;20209;-66
2021/10/16 01:58:50;;;;;;;4.35;2.60;;;2.20;97.80;;;;;;2074099;28;20184;-65
2021/10/16 01:59:51;;;;;;;3.77;2.87;;;2.20;97.90;;;;;;2074218;28;20181;-65
2021/10/16 02:00:52;;;;;;;5.57;2.80;;;2.30;97.90;;;;;;2073872;28;20178;-65
2021/10/16 02:01:53;;;;;;;3.73;2.63;;;2.20;98.00;;;;;;2074076;28;20557;-65
2021/10/16 02:02:54;;;;;;;4.38;2.85;;;2.20;98.00;;;;;;2073454;28;20170;-65
2021/10/16 02:03:55;;;;;;;3.60;2.70;;;2.20;98.00;;;;;;2073408;28;20188;-66
2021/10/16 02:04:55;;;;;;;4.13;2.83;;;2.30;97.90;;;;;;2073985;28;20264;-66
2021/10/16 02:05:56;;;;;;;4.07;2.80;;;2.30;97.70;;;;;;2074225;28;20763;-65
2021/10/16 02:06:57;;;;;;;4.13;2.60;;;2.20;97.70;;;;;;2073962;28;20240;-66
2021/10/16 02:07:57;;;;;;;2.70;2.23;;;2.30;97.60;;;;;;2074225;28;20177;-66
2021/10/16 02:08:58;;;;;;;4.57;2.73;;;2.20;97.60;;;;;;2073985;28;20170;-66
2021/10/16 02:09:59;;;;;;;4.47;2.90;;;2.20;97.50;;;;;;2074076;28;20554;-65
2021/10/16 02:11:00;;;;;;;5.47;2.90;;;2.20;97.60;;;;;;2073868;28;20256;-66
2021/10/16 02:12:00;;;;;;;3.90;2.80;;;2.20;97.80;;;;;;2073824;28;20205;-65
2021/10/16 02:13:01;;;;;;;4.90;2.87;;;2.20;98.10;;;;;;2074036;28;20177;-65
2021/10/16 02:14:03;;;;;;;4.23;3.03;;;2.20;98.10;;;;;;2073963;28;20178;-65
2021/10/16 02:15:04;;;;;;;4.25;2.58;;;2.20;98.00;;;;;;2073275;28;20252;-65
2021/10/16 02:16:05;;;;;;;5.47;3.03;;;2.30;97.80;;;;;;2073429;28;20546;-66
2021/10/16 02:17:06;;;;;;;3.90;2.70;;;2.30;98.00;;;;;;2074004;28;20645;-65
2021/10/16 02:18:06;;;;;;;6.03;2.27;;;2.20;97.90;;;;;;2073922;28;20444;-65
2021/10/16 02:19:07;;;;;;;4.93;2.80;;;2.20;98.00;;;;;;2073858;28;20224;-66
2021/10/16 02:20:08;;;;;;;6.57;3.00;;;2.20;98.00;;;;;;2073986;28;20667;-65
2021/10/16 02:21:09;;;;;;;6.05;2.67;;;2.20;97.90;;;;;;2073782;28;20185;-66
2021/10/16 02:22:10;;;;;;;4.43;2.43;;;2.20;97.80;;;;;;2073846;28;20555;-65
2021/10/16 02:23:11;;;;;;;2.90;2.50;;;2.20;97.70;;;;;;2073643;28;20213;-65
2021/10/16 02:24:11;;;;;;;4.00;2.93;;;2.20;97.60;;;;;;2073872;28;20178;-65
2021/10/16 02:25:12;;;;;;;3.47;2.27;;;2.20;97.40;;;;;;2073817;28;20264;-64
2021/10/16 02:26:13;;;;;;;5.17;2.70;;;2.20;97.30;;;;;;2073978;28;20248;-65
2021/10/16 02:27:13;;;;;;;4.50;2.80;;;2.20;97.30;;;;;;2073188;28;20878;-66
2021/10/16 02:28:14;;;;;;;4.33;2.77;;;2.20;97.30;;;;;;2073151;28;20722;-65
2021/10/16 02:29:15;;;;;;;6.80;3.00;;;2.10;97.40;;;;;;2073845;28;20431;-65
2021/10/16 02:30:15;;;;;;;4.07;2.60;;;2.10;97.50;;;;;;2073164;28;20220;-65
2021/10/16 02:31:16;;;;;;;3.40;2.50;;;2.20;97.60;;;;;;2073015;28;20184;-65
2021/10/16 02:32:17;;;;;;;5.00;3.10;;;2.20;97.60;;;;;;2074029;28;20371;-64
2021/10/16 02:33:18;;;;;;;5.60;3.13;;;2.20;97.60;;;;;;2073623;28;20229;-65
2021/10/16 02:34:18;;;;;;;3.60;2.23;;;2.20;97.60;;;;;;2073786;28;20552;-65
2021/10/16 02:35:19;;;;;;;4.47;2.83;;;2.20;97.70;;;;;;2073738;28;20209;-65
2021/10/16 02:36:20;;;;;;;5.37;2.60;;;2.10;97.60;;;;;;2073114;28;20535;-66
2021/10/16 02:37:20;;;;;;;4.20;2.67;;;2.10;97.50;;;;;;2073217;28;20174;-66
2021/10/16 02:38:21;;;;;;;5.90;2.47;;;2.20;97.40;;;;;;2073894;28;20177;-65
2021/10/16 02:39:22;;;;;;;4.17;2.57;;;2.20;97.20;;;;;;2073568;28;20676;-66
2021/10/16 02:40:23;;;;;;;3.73;2.40;;;2.10;97.00;;;;;;2073902;28;20178;-65
2021/10/16 02:41:23;;;;;;;3.50;2.53;;;2.10;96.90;;;;;;2073414;28;20653;-65
2021/10/16 02:42:24;;;;;;;4.20;2.87;;;2.10;96.90;;;;;;2076980;28;20204;-65
2021/10/16 02:43:25;;;;;;;5.60;2.80;;;2.10;96.90;;;;;;2081680;28;20185;-63
2021/10/16 02:44:29;;;;;;;4.73;2.90;;;2.10;96.90;;;;;;2081793;28;20189;-65
2021/10/16 02:45:30;;;;;;;3.40;2.70;;;2.10;97.00;;;;;;2081762;28;20201;-63
2021/10/16 02:46:30;;;;;;;6.47;2.77;;;2.10;97.10;;;;;;2081715;28;20184;-66
2021/10/16 02:47:31;;;;;;;5.17;3.13;;;2.00;97.20;;;;;;2080197;28;20235;-64
2021/10/16 02:48:32;;;;;;;5.40;3.00;;;2.00;97.40;;;;;;2073898;28;20185;-66
2021/10/16 02:49:33;;;;;;;7.00;3.40;;;2.00;97.40;;;;;;2073542;28;20200;-65
2021/10/16 02:50:33;;;;;;;4.93;3.17;;;2.00;97.50;;;;;;2073520;28;20193;-65
2021/10/16 02:51:34;;;;;;;6.03;3.47;;;2.00;97.60;;;;;;2081133;28;20200;-65
2021/10/16 02:52:35;;;;;;;4.87;3.17;;;2.00;97.70;;;;;;2081965;28;20598;-66
2021/10/16 02:53:36;;;;;;;5.30;3.23;;;2.00;97.70;;;;;;2080797;28;20203;-65
2021/10/16 02:54:36;;;;;;;4.30;2.97;;;2.00;97.70;;;;;;2081152;28;20223;-65
2021/10/16 02:55:37;;;;;;;5.03;2.87;;;2.00;97.50;;;;;;2081577;28;20197;-65
2021/10/16 02:56:38;;;;;;;4.55;2.92;;;2.00;97.50;;;;;;2081814;28;20559;-66
2021/10/16 02:57:39;;;;;;;6.37;3.83;;;2.00;97.60;;;;;;2081678;28;20185;-65
2021/10/16 02:58:39;;;;;;;4.03;2.93;;;2.00;98.20;;;;;;2081797;28;20177;-66
2021/10/16 02:59:40;;;;;;;5.17;3.30;;;2.00;97.60;;;;;;2081778;28;20236;-66
2021/10/16 03:00:41;;;;;;;4.73;2.90;;;2.00;97.60;;;;;;2081580;28;20648;-64
2021/10/16 03:01:41;;;;;;;4.57;3.30;;;2.00;97.60;;;;;;2081383;28;20177;-65
2021/10/16 03:02:42;;;;;;;6.13;3.70;;;2.00;97.80;;;;;;2081672;28;20185;-66
2021/10/16 03:03:43;;;;;;;6.20;3.40;;;2.00;97.80;;;;;;2081650;28;20196;-65
2021/10/16 03:04:43;;;;;;;8.30;3.73;;;2.00;97.90;;;;;;2081041;28;20679;-65
2021/10/16 03:05:44;;;;;;;5.30;3.23;;;2.00;98.00;;;;;;2080837;28;20243;-66
2021/10/16 03:06:45;;;;;;;7.30;3.53;;;2.00;97.90;;;;;;2081703;28;20185;-65
2021/10/16 03:07:45;;;;;;;4.97;3.13;;;2.00;97.70;;;;;;2081577;28;20182;-65
2021/10/16 03:08:46;;;;;;;5.67;3.50;;;2.00;97.60;;;;;;2081669;28;20221;-66
2021/10/16 03:09:47;;;;;;;5.60;3.90;;;2.00;97.50;;;;;;2081658;28;20196;-65
2021/10/16 03:10:47;;;;;;;4.23;3.20;;;2.00;97.50;;;;;;2081515;28;20648;-65
2021/10/16 03:11:48;;;;;;;4.70;3.63;;;1.90;97.50;;;;;;2081379;28;20192;-65
2021/10/16 03:12:49;;;;;;;6.10;3.50;;;1.90;97.60;;;;;;2081473;28;20181;-64
2021/10/16 03:13:50;;;;;;;5.20;3.47;;;1.90;97.60;;;;;;2081597;28;20211;-65
2021/10/16 03:14:51;;;;;;;5.80;3.23;;;1.90;97.50;;;;;;2081532;28;20200;-66
2021/10/16 03:15:51;;;;;;;5.75;3.50;;;1.90;97.60;;;;;;2081417;28;20593;-65
2021/10/16 03:16:52;;;;;;;5.83;3.73;;;1.90;97.70;;;;;;2081457;28;20188;-64
2021/10/16 03:17:53;;;;;;;6.10;3.80;;;1.90;97.80;;;;;;2081485;28;20701;-65
2021/10/16 03:18:54;;;;;;;6.43;3.40;;;1.90;97.90;;;;;;2081542;28;20181;-65
2021/10/16 03:19:54;;;;;;;4.43;3.57;;;1.90;97.80;;;;;;2081497;28;20172;-65
2021/10/16 03:20:55;;;;;;;5.07;3.67;;;1.90;97.80;;;;;;2081561;28;20711;-65
2021/10/16 03:21:56;;;;;;;4.13;3.10;;;1.90;97.80;;;;;;2081112;28;20268;-64
2021/10/16 03:22:57;;;;;;;6.75;3.85;;;1.90;97.80;;;;;;2081443;28;20404;-65
2021/10/16 03:23:58;;;;;;;6.97;3.60;;;1.90;97.80;;;;;;2081344;28;20181;-64
2021/10/16 03:24:59;;;;;;;7.60;3.93;;;1.90;97.70;;;;;;2081281;28;20476;-65
2021/10/16 03:25:59;;;;;;;5.97;3.50;;;1.90;97.70;;;;;;2081446;28;20267;-65
2021/10/16 03:27:00;;;;;;;5.87;3.70;;;1.90;97.70;;;;;;2081441;28;20859;-64
2021/10/16 03:28:01;;;;;;;6.00;3.75;;;1.90;97.70;;;;;;2081380;28;20188;-65
2021/10/16 03:29:02;;;;;;;6.07;3.10;;;1.90;97.70;;;;;;2081399;28;20721;-64
2021/10/16 03:30:04;;;;;;;5.33;3.40;;;1.80;97.70;;;;;;2081546;28;20258;-65
2021/10/16 03:31:05;;;;;;;5.68;3.63;;;1.90;97.70;;;;;;2081157;28;20181;-65
2021/10/16 03:32:06;;;;;;;6.87;3.47;;;1.90;97.70;;;;;;2081305;28;20195;-65
2021/10/16 03:33:07;;;;;;;6.78;3.00;;;1.80;97.60;;;;;;2081377;28;20181;-65
2021/10/16 03:34:07;;;;;;;6.15;3.47;;;1.80;97.50;;;;;;2083342;28;20276;-64
2021/10/16 03:35:08;;;;;;;7.13;3.50;;;1.80;97.30;;;;;;2081189;28;20179;-65
2021/10/16 03:36:09;;;;;;;4.80;3.50;;;1.80;97.20;;;;;;2081277;28;20199;-65
2021/10/16 03:37:10;;;;;;;4.73;3.10;;;1.80;97.10;;;;;;2081304;28;20308;-64
2021/10/16 03:38:10;;;;;;;4.73;3.23;;;1.80;97.20;;;;;;2081234;28;20180;-64
2021/10/16 03:39:11;;;;;;;4.57;3.07;;;1.80;97.40;;;;;;2080648;28;20177;-64
2021/10/16 03:40:12;;;;;;;5.83;3.70;;;1.80;97.40;;;;;;2080736;28;20181;-64
2021/10/16 03:41:12;;;;;;;6.97;3.60;;;1.70;97.50;;;;;;2080965;28;20185;-64
2021/10/16 03:42:13;;;;;;;5.53;3.67;;;1.70;97.60;;;;;;2081330;28;20618;-64
2021/10/16 03:43:14;;;;;;;5.93;3.70;;;1.70;97.60;;;;;;2081146;28;20185;-65
2021/10/16 03:44:14;;;;;;;6.37;3.40;;;1.70;97.60;;;;;;2081337;28;20180;-65
2021/10/16 03:45:15;;;;;;;6.30;3.50;;;1.70;97.60;;;;;;2081107;28;20180;-64
2021/10/16 03:46:16;;;;;;;5.47;3.73;;;1.70;97.60;;;;;;2081222;28;20177;-65
2021/10/16 03:47:17;;;;;;;6.17;3.70;;;1.70;97.60;;;;;;2083044;28;20180;-64
2021/10/16 03:48:17;;;;;;;5.60;3.63;;;1.70;97.70;;;;;;2080863;28;20659;-65
2021/10/16 03:49:18;;;;;;;5.90;3.33;;;1.70;97.80;;;;;;2081306;28;20204;-65
2021/10/16 03:50:19;;;;;;;7.40;3.83;;;1.70;97.80;;;;;;2081114;28;20960;-63
2021/10/16 03:51:20;;;;;;;5.87;3.47;;;1.70;97.80;;;;;;2081044;28;20177;-64
2021/10/16 03:52:20;;;;;;;8.50;4.10;;;1.70;97.70;;;;;;2081184;28;20255;-64
2021/10/16 03:53:21;;;;;;;7.13;3.90;;;1.70;97.90;;;;;;2081301;28;20230;-65
2021/10/16 03:54:22;;;;;;;6.17;4.20;;;1.70;98.00;;;;;;2081163;28;20207;-64
2021/10/16 03:55:22;;;;;;;8.57;4.63;;;1.70;98.00;;;;;;2081122;28;20197;-64
2021/10/16 03:56:23;;;;;;;5.83;3.40;;;1.70;98.00;;;;;;2081305;28;20595;-66
2021/10/16 03:57:24;;;;;;;5.77;3.00;;;1.70;97.80;;;;;;2081239;28;20376;-63
2021/10/16 03:58:24;;;;;;;5.17;3.57;;;1.70;97.70;;;;;;2081306;28;20559;-64
2021/10/16 03:59:25;;;;;;;6.37;3.67;;;1.70;97.60;;;;;;2081050;28;20185;-66
2021/10/16 04:00:26;;;;;;;5.77;3.63;;;1.70;97.60;;;;;;2081266;28;20557;-65
2021/10/16 04:01:27;;;;;;;5.63;3.30;;;1.70;97.60;;;;;;2081008;28;20712;-64
2021/10/16 04:02:27;;;;;;;6.17;3.33;;;1.70;97.50;;;;;;2081162;28;20209;-65
2021/10/16 04:03:29;;;;;;;5.10;3.47;;;1.70;97.50;;;;;;2081289;28;20197;-65
2021/10/16 04:04:30;;;;;;;5.93;3.50;;;1.70;97.50;;;;;;2080545;28;20212;-64
2021/10/16 04:05:33;;;;;;;5.50;3.60;;;1.70;97.60;;;;;;2080521;28;20327;-64
2021/10/16 04:06:33;;;;;;;8.32;3.92;;;1.60;97.60;;;;;;2081196;28;20180;-66
2021/10/16 04:07:34;;;;;;;5.30;3.67;;;1.60;97.60;;;;;;2081104;28;20208;-64
2021/10/16 04:08:35;;;;;;;6.13;3.70;;;1.60;97.70;;;;;;2080974;28;20192;-64
2021/10/16 04:09:35;;;;;;;11.63;5.70;;;1.60;97.80;;;;;;2081068;28;20231;-65
2021/10/16 04:10:36;;;;;;;9.07;4.60;;;1.60;98.00;;;;;;2081021;28;20214;-64
2021/10/16 04:11:37;;;;;;;6.40;4.47;;;1.60;97.90;;;;;;2080953;28;20577;-64
2021/10/16 04:12:38;;;;;;;11.83;5.43;;;1.60;98.10;;;;;;2081115;28;20189;-65
2021/10/16 04:13:38;;;;;;;7.73;4.43;;;1.70;98.10;;;;;;2081212;28;20188;-65
2021/10/16 04:14:39;;;;;;;6.07;4.03;;;1.70;98.10;;;;;;2081036;28;20676;-65
2021/10/16 04:15:40;;;;;;;6.60;4.37;;;1.70;98.10;;;;;;2080969;28;20292;-65
2021/10/16 04:16:41;;;;;;;7.32;4.15;;;1.70;98.10;;;;;;2081030;28;20173;-64
2021/10/16 04:17:44;;;;;;;6.20;4.07;;;1.70;98.20;;;;;;2081140;28;20200;-66
2021/10/16 04:18:45;;;;;;;7.72;4.50;;;1.70;98.10;;;;;;2081073;28;20173;-64
2021/10/16 04:19:46;;;;;;;7.23;4.33;;;1.60;98.00;;;;;;2081070;28;20169;-64
2021/10/16 04:20:47;;;;;;;5.67;3.67;;;1.70;97.80;;;;;;2080969;28;20193;-64
2021/10/16 04:21:48;;;;;;;7.47;4.38;;;1.70;97.70;;;;;;2080309;28;20173;-65
2021/10/16 04:22:49;;;;;;;6.40;3.40;;;1.60;97.80;;;;;;2080451;28;20212;-64
2021/10/16 04:23:49;;;;;;;7.60;3.70;;;1.60;98.00;;;;;;2081108;28;20181;-64
2021/10/16 04:24:50;;;;;;;7.07;3.87;;;1.60;98.10;;;;;;2081044;28;20173;-64
2021/10/16 04:25:51;;;;;;;8.50;4.13;;;1.50;98.10;;;;;;2080982;28;20232;-65
2021/10/16 04:26:52;;;;;;;5.63;3.80;;;1.50;98.00;;;;;;2081153;28;20238;-65
2021/10/16 04:27:52;;;;;;;6.87;4.17;;;1.50;98.00;;;;;;2081103;28;20177;-65
2021/10/16 04:28:53;;;;;;;7.20;4.33;;;1.60;97.90;;;;;;2081000;28;20238;-64
2021/10/16 04:29:54;;;;;;;6.73;4.20;;;1.60;97.90;;;;;;2081239;28;20203;-65
2021/10/16 04:30:55;;;;;;;6.03;3.80;;;1.60;97.80;;;;;;2080974;28;20230;-64
2021/10/16 04:31:55;;;;;;;6.90;3.57;;;1.60;97.70;;;;;;2080282;28;20211;-64
2021/10/16 04:32:58;;;;;;;7.13;4.23;;;1.60;97.70;;;;;;2080600;28;20177;-65
2021/10/16 04:33:59;;;;;;;6.70;4.05;;;1.60;97.50;;;;;;2081220;28;20189;-65
2021/10/16 04:35:01;;;;;;;6.68;3.88;;;1.60;97.50;;;;;;2081112;28;20315;-65
2021/10/16 04:36:03;;;;;;;6.57;4.30;;;1.60;97.50;;;;;;2081282;28;20227;-63
2021/10/16 04:37:04;;;;;;;7.50;4.03;;;1.60;97.50;;;;;;2081144;28;20268;-64
2021/10/16 04:38:04;;;;;;;6.07;4.17;;;1.50;97.40;;;;;;2081185;28;20229;-64
2021/10/16 04:39:05;;;;;;;5.17;3.90;;;1.50;97.40;;;;;;2081231;28;20235;-64
2021/10/16 04:40:17;;;;;;;4.83;3.63;;;1.50;97.60;;;;;;2081485;28;20196;-64
2021/10/16 04:41:18;;;;;;;6.80;3.80;;;1.50;97.50;;;;;;2080888;28;20209;-65
2021/10/16 04:42:19;;;;;;;6.70;3.47;;;1.50;97.50;;;;;;2081244;28;20197;-63
2021/10/16 04:43:20;;;;;;;5.23;3.60;;;1.50;97.50;;;;;;2081403;28;20580;-64
2021/10/16 04:44:20;;;;;;;6.97;4.00;;;1.50;97.50;;;;;;2080700;28;20177;-64
2021/10/16 04:45:22;;;;;;;5.13;3.43;;;1.50;97.50;;;;;;2080518;28;20209;-65
2021/10/16 04:46:24;;;;;;;11.00;5.82;;;1.50;97.50;;;;;;2081252;28;20173;-65
2021/10/16 04:47:25;;;;;;;10.82;6.82;;;1.50;97.60;;;;;;2081151;28;20182;-65
2021/10/16 04:48:25;;;;;;;9.67;6.13;;;1.50;97.80;;;;;;2081178;28;20181;-65
2021/10/16 04:49:27;;;;;;;10.33;6.23;;;1.50;97.90;;;;;;2081075;28;20174;-65
2021/10/16 04:50:28;;;;;;;11.13;6.30;;;1.50;97.90;;;;;;2080510;28;20710;-64
2021/10/16 04:51:29;;;;;;;11.73;6.23;;;1.50;97.90;;;;;;2072100;28;20269;-65
2021/10/16 04:52:29;;;;;;;12.00;6.30;;;1.60;98.00;;;;;;2080183;28;20427;-65
2021/10/16 04:53:30;;;;;;;11.70;6.70;;;1.60;98.00;;;;;;2080493;28;20621;-63
2021/10/16 04:54:31;;;;;;;13.03;6.40;;;1.60;98.10;;;;;;2078790;28;20202;-64
2021/10/16 04:55:32;;;;;;;11.98;6.43;;;1.60;98.20;;;;;;2073068;28;20205;-64
2021/10/16 04:56:32;;;;;;;12.17;6.17;;;1.60;98.20;;;;;;2072307;28;20268;-65
2021/10/16 04:57:33;;;;;;;11.60;6.13;;;1.60;98.10;;;;;;2072309;28;20178;-64
2021/10/16 04:58:34;;;;;;;10.10;5.87;;;1.60;98.00;;;;;;2072706;28;20602;-65
2021/10/16 04:59:35;;;;;;;8.70;5.60;;;1.60;97.90;;;;;;2072854;28;20178;-65
2021/10/16 05:00:35;;;;;;;10.00;6.37;;;1.60;97.90;;;;;;2073971;28;20173;-64
2021/10/16 05:01:36;;;;;;;10.23;6.60;;;1.60;98.00;;;;;;2074148;28;20393;-65
2021/10/16 05:02:37;;;;;;;16.10;6.20;;;1.60;98.00;;;;;;2074276;28;20186;-66
2021/10/16 05:03:37;;;;;;;11.80;6.10;;;1.60;98.00;;;;;;2074307;28;20265;-66
2021/10/16 05:04:38;;;;;;;9.50;5.40;;;1.60;98.00;;;;;;2074297;28;20261;-64
2021/10/16 05:05:39;;;;;;;7.57;5.10;;;1.60;98.00;;;;;;2074275;28;20205;-65
2021/10/16 05:06:39;;;;;;;10.40;5.70;;;1.60;98.00;;;;;;2074268;28;20691;-66
2021/10/16 05:07:40;;;;;;;10.63;5.70;;;1.60;98.00;;;;;;2074381;28;20181;-65
2021/10/16 05:08:41;;;;;;;10.00;6.47;;;1.70;98.00;;;;;;2074170;28;20182;-66
2021/10/16 05:09:42;;;;;;;8.50;5.37;;;1.70;98.00;;;;;;2074337;28;20186;-64
2021/10/16 05:10:42;;;;;;;11.43;5.77;;;1.70;97.90;;;;;;2074196;28;20186;-64
2021/10/16 05:11:43;;;;;;;10.63;6.30;;;1.70;97.80;;;;;;2074095;28;20514;-66
2021/10/16 05:12:44;;;;;;;9.47;6.30;;;1.70;97.90;;;;;;2074426;28;20522;-63
2021/10/16 05:13:44;;;;;;;12.70;6.90;;;1.70;98.00;;;;;;2074460;28;20263;-65
2021/10/16 05:14:45;;;;;;;10.30;6.03;;;1.70;98.00;;;;;;2074129;28;20680;-66
2021/10/16 05:15:46;;;;;;;9.73;6.13;;;1.70;97.90;;;;;;2074186;28;20201;-64
2021/10/16 05:16:46;;;;;;;12.60;6.20;;;1.70;97.90;;;;;;2074259;28;20166;-65
2021/10/16 05:17:47;;;;;;;9.47;5.60;;;1.70;98.00;;;;;;2074285;28;20547;-66
2021/10/16 05:18:48;;;;;;;11.10;6.33;;;1.70;98.10;;;;;;2074138;28;20174;-64
2021/10/16 05:19:48;;;;;;;10.83;6.13;;;1.70;98.00;;;;;;2074247;28;20189;-64
2021/10/16 05:20:50;;;;;;;14.10;6.43;;;1.70;97.90;;;;;;2081635;28;20645;-64
2021/10/16 05:21:51;;;;;;;13.90;7.10;;;1.70;97.80;;;;;;2081483;28;20196;-64